首页
METAR-TAF:

METAR-TAF

机场 :

卢森堡, 卢森堡

卢森堡-芬德尔国际机场

纬度: 49-37N, 经度: 006-13E, 海拔: 376米

当前天气观测

该预报发布于21分钟前的17:50 UTC
风速9节,风向西转西南
温度 17°C
湿度 48%
气压 1015 hPa
能见度10公里或以上
1500米以下无云,无积雨云

METAR: ELLX 241750Z 24009KT CAVOK 17/06 Q1015 NOSIG

时间: 20:11 (18:11 UTC)

预报

该预报发布于1小时和11分钟前的17:00 UTC
预报有效从24日的 18点(UTC)到 25日的 24点(UTC)
风速8节,风向西南
能见度10公里或以上
1500米以下无云,无积雨云
成为
从 25日的 05点(UTC)到 25日的 08点(UTC)
风速12节,风向西南
能见度10公里或以上
多云层高于2500英尺
短暂存在
从 25日的 08点(UTC)到 25日的 18点(UTC)
风速15节,风向西南,有时为25节阵风
能見度: 4500
散云层高于700英尺
多云层高于1000英尺
雨, 雨, 毛毛雨
成为
从 25日的 18点(UTC)到 25日的 20点(UTC)
风速8节,风向西
能见度10公里或以上
1500米以下无云,无积雨云

TAF: ELLX 241700Z 2418/2524 23008KT CAVOK BECMG 2505/2508 23012KT 9999 BKN025 TEMPO 2508/2518 23015G25KT 4500 RA RADZ SCT007 BKN010 BECMG 2518/2520 27008KT CAVOK

超过4000个机场的气象观测和天气预报(METAR&TAF报告)。

可查询的气象台以黄色和红色小点在地图上表示。

将鼠标移到小点上方,可查看气象台名称。

然后点击查看天气观测和预报。

如需切换地图:点击带黑十字的绿色按钮放大地图;点击带横线的绿色按钮缩小地图;或者点击绿色箭头查看邻近地区的地图。


METAR-TAF: